Richlands, North Carolina
Current Conditions -  °F | °C
As of 3:15 AM on Thursday 27 Nov 2014 (Local Time) from KOAJ Reporting Station
Broken Clouds Broken Clouds  
Wind Chill: 36°   Ceiling: 3700
Heat Index: 36°   Visibility: 9mi
Dew Point: 34°   Wind: 0mph
Humidity: 93%   Direction: NA
Pressure: 30.1"   Gusts: NA
Location:  34.9°N, 77.55°W
Report Text: KOAJ 270815Z AUTO 00000KT 9SM BKN037 BKN043 02/01 A3010 RMK AO1
Loading
Personal Weather Stations






























Interactive Weather Map New forecast layout! Learn more

10-Day Weather Forecast

Advertisements
Track Severe Weather on mobile